sensor_id;sensor_type;location;lat;lon;timestamp;temperature;humidity
11965;DHT22;6042;41.326;19.826;2022-08-25T00:01:37;22.60;99.90
11965;DHT22;6042;41.326;19.826;2022-08-25T00:04:08;22.50;99.90
11965;DHT22;6042;41.326;19.826;2022-08-25T00:06:41;22.60;99.90
11965;DHT22;6042;41.326;19.826;2022-08-25T00:09:12;22.60;99.90
11965;DHT22;6042;41.326;19.826;2022-08-25T00:11:41;22.70;99.90
11965;DHT22;6042;41.326;19.826;2022-08-25T00:14:14;22.70;99.90
11965;DHT22;6042;41.326;19.826;2022-08-25T00:16:44;22.70;99.90
11965;DHT22;6042;41.326;19.826;2022-08-25T00:19:15;22.70;99.90
11965;DHT22;6042;41.326;19.826;2022-08-25T00:21:44;22.70;99.90
11965;DHT22;6042;41.326;19.826;2022-08-25T00:24:14;22.70;99.90
11965;DHT22;6042;41.326;19.826;2022-08-25T00:26:48;22.70;99.90
11965;DHT22;6042;41.326;19.826;2022-08-25T00:29:20;22.70;99.90
11965;DHT22;6042;41.326;19.826;2022-08-25T00:31:48;22.70;99.90
11965;DHT22;6042;41.326;19.826;2022-08-25T00:34:21;22.70;99.90
11965;DHT22;6042;41.326;19.826;2022-08-25T00:36:50;22.60;99.90
11965;DHT22;6042;41.326;19.826;2022-08-25T00:39:21;22.60;99.90
11965;DHT22;6042;41.326;19.826;2022-08-25T00:41:52;22.60;99.90
11965;DHT22;6042;41.326;19.826;2022-08-25T00:44:24;22.60;99.90
11965;DHT22;6042;41.326;19.826;2022-08-25T00:46:56;22.60;99.90
11965;DHT22;6042;41.326;19.826;2022-08-25T00:58:07;22.60;99.90
11965;DHT22;6042;41.326;19.826;2022-08-25T01:00:43;22.70;99.90
11965;DHT22;6042;41.326;19.826;2022-08-25T01:03:13;22.70;99.90
11965;DHT22;6042;41.326;19.826;2022-08-25T01:05:42;22.70;99.90
11965;DHT22;6042;41.326;19.826;2022-08-25T01:08:12;22.80;99.90
11965;DHT22;6042;41.326;19.826;2022-08-25T01:10:43;22.90;99.90
11965;DHT22;6042;41.326;19.826;2022-08-25T01:13:19;22.90;99.90
11965;DHT22;6042;41.326;19.826;2022-08-25T01:15:49;22.90;99.90
11965;DHT22;6042;41.326;19.826;2022-08-25T01:18:20;22.90;99.90
11965;DHT22;6042;41.326;19.826;2022-08-25T01:20:51;23.00;99.90
11965;DHT22;6042;41.326;19.826;2022-08-25T01:23:20;23.00;99.90
11965;DHT22;6042;41.326;19.826;2022-08-25T01:25:56;23.10;99.90
11965;DHT22;6042;41.326;19.826;2022-08-25T01:28:27;23.10;99.90
11965;DHT22;6042;41.326;19.826;2022-08-25T01:30:55;23.10;99.90
11965;DHT22;6042;41.326;19.826;2022-08-25T01:33:25;23.00;99.90
11965;DHT22;6042;41.326;19.826;2022-08-25T01:35:54;22.90;99.90
11965;DHT22;6042;41.326;19.826;2022-08-25T01:38:23;22.80;99.90
11965;DHT22;6042;41.326;19.826;2022-08-25T01:40:51;22.70;99.90
11965;DHT22;6042;41.326;19.826;2022-08-25T01:43:29;22.70;99.90
11965;DHT22;6042;41.326;19.826;2022-08-25T01:45:59;22.50;99.90
11965;DHT22;6042;41.326;19.826;2022-08-25T01:48:28;22.40;99.90
11965;DHT22;6042;41.326;19.826;2022-08-25T01:50:57;22.40;99.90
11965;DHT22;6042;41.326;19.826;2022-08-25T01:53:28;22.30;99.90
11965;DHT22;6042;41.326;19.826;2022-08-25T01:56:06;22.30;99.90
11965;DHT22;6042;41.326;19.826;2022-08-25T01:58:39;22.30;99.90
11965;DHT22;6042;41.326;19.826;2022-08-25T02:01:10;22.30;99.90
11965;DHT22;6042;41.326;19.826;2022-08-25T02:03:43;22.30;99.90
11965;DHT22;6042;41.326;19.826;2022-08-25T02:06:18;22.30;99.90
11965;DHT22;6042;41.326;19.826;2022-08-25T02:08:57;22.40;99.90
11965;DHT22;6042;41.326;19.826;2022-08-25T02:11:27;22.60;99.90
11965;DHT22;6042;41.326;19.826;2022-08-25T02:13:56;22.60;99.90
11965;DHT22;6042;41.326;19.826;2022-08-25T02:16:28;22.60;99.90
11965;DHT22;6042;41.326;19.826;2022-08-25T02:18:58;22.60;99.90
11965;DHT22;6042;41.326;19.826;2022-08-25T02:21:28;22.50;99.90
11965;DHT22;6042;41.326;19.826;2022-08-25T02:23:57;22.50;99.90
11965;DHT22;6042;41.326;19.826;2022-08-25T02:26:26;22.40;99.90
11965;DHT22;6042;41.326;19.826;2022-08-25T02:28:55;22.40;99.90
11965;DHT22;6042;41.326;19.826;2022-08-25T02:31:24;22.40;99.90
11965;DHT22;6042;41.326;19.826;2022-08-25T02:33:54;22.40;99.90
11965;DHT22;6042;41.326;19.826;2022-08-25T02:36:23;22.40;99.90
11965;DHT22;6042;41.326;19.826;2022-08-25T02:38:53;22.40;99.90
11965;DHT22;6042;41.326;19.826;2022-08-25T02:41:23;22.40;99.90
11965;DHT22;6042;41.326;19.826;2022-08-25T02:43:58;22.50;99.90
11965;DHT22;6042;41.326;19.826;2022-08-25T02:46:27;22.50;99.90
11965;DHT22;6042;41.326;19.826;2022-08-25T02:48:57;22.40;99.90
11965;DHT22;6042;41.326;19.826;2022-08-25T02:51:27;22.40;99.90
11965;DHT22;6042;41.326;19.826;2022-08-25T02:53:59;22.40;99.90
11965;DHT22;6042;41.326;19.826;2022-08-25T02:56:29;22.50;99.90
11965;DHT22;6042;41.326;19.826;2022-08-25T02:58:57;22.40;99.90
11965;DHT22;6042;41.326;19.826;2022-08-25T03:01:26;22.40;99.90
11965;DHT22;6042;41.326;19.826;2022-08-25T03:03:56;22.40;99.90
11965;DHT22;6042;41.326;19.826;2022-08-25T03:06:25;22.30;99.90
11965;DHT22;6042;41.326;19.826;2022-08-25T03:08:54;22.30;99.90
11965;DHT22;6042;41.326;19.826;2022-08-25T03:11:24;22.20;99.90
11965;DHT22;6042;41.326;19.826;2022-08-25T03:13:53;22.20;99.90
11965;DHT22;6042;41.326;19.826;2022-08-25T03:16:23;22.20;99.90
11965;DHT22;6042;41.326;19.826;2022-08-25T03:18:55;22.10;99.90
11965;DHT22;6042;41.326;19.826;2022-08-25T03:21:27;22.10;99.90
11965;DHT22;6042;41.326;19.826;2022-08-25T03:23:58;22.00;99.90
11965;DHT22;6042;41.326;19.826;2022-08-25T03:26:28;22.10;99.90
11965;DHT22;6042;41.326;19.826;2022-08-25T03:29:14;22.20;99.90
11965;DHT22;6042;41.326;19.826;2022-08-25T03:31:44;22.20;99.90
11965;DHT22;6042;41.326;19.826;2022-08-25T03:34:13;22.20;99.90
11965;DHT22;6042;41.326;19.826;2022-08-25T03:36:43;22.20;99.90
11965;DHT22;6042;41.326;19.826;2022-08-25T03:39:12;22.30;99.90
11965;DHT22;6042;41.326;19.826;2022-08-25T03:41:42;22.20;99.90
11965;DHT22;6042;41.326;19.826;2022-08-25T03:44:12;22.20;99.90
11965;DHT22;6042;41.326;19.826;2022-08-25T03:46:42;22.20;99.90
11965;DHT22;6042;41.326;19.826;2022-08-25T03:49:14;22.20;99.90
11965;DHT22;6042;41.326;19.826;2022-08-25T03:51:44;22.20;99.90
11965;DHT22;6042;41.326;19.826;2022-08-25T03:54:14;22.20;99.90
11965;DHT22;6042;41.326;19.826;2022-08-25T03:56:45;22.20;99.90
11965;DHT22;6042;41.326;19.826;2022-08-25T03:59:13;22.20;99.90
11965;DHT22;6042;41.326;19.826;2022-08-25T04:01:43;22.20;99.90
11965;DHT22;6042;41.326;19.826;2022-08-25T04:04:13;22.10;99.90
11965;DHT22;6042;41.326;19.826;2022-08-25T04:06:43;22.10;99.90
11965;DHT22;6042;41.326;19.826;2022-08-25T04:09:11;22.10;99.90
11965;DHT22;6042;41.326;19.826;2022-08-25T04:11:40;22.10;99.90
11965;DHT22;6042;41.326;19.826;2022-08-25T04:14:12;22.10;99.90
11965;DHT22;6042;41.326;19.826;2022-08-25T04:16:43;22.10;99.90
11965;DHT22;6042;41.326;19.826;2022-08-25T04:19:12;22.20;99.90
11965;DHT22;6042;41.326;19.826;2022-08-25T04:21:41;22.10;99.90
11965;DHT22;6042;41.326;19.826;2022-08-25T04:24:10;22.10;99.90
11965;DHT22;6042;41.326;19.826;2022-08-25T04:26:41;22.20;99.90
11965;DHT22;6042;41.326;19.826;2022-08-25T04:29:14;22.10;99.90
11965;DHT22;6042;41.326;19.826;2022-08-25T04:31:44;22.20;99.90
11965;DHT22;6042;41.326;19.826;2022-08-25T04:34:15;22.30;99.90
11965;DHT22;6042;41.326;19.826;2022-08-25T04:36:59;22.30;99.90
11965;DHT22;6042;41.326;19.826;2022-08-25T04:39:29;22.40;99.90
11965;DHT22;6042;41.326;19.826;2022-08-25T04:42:01;22.40;99.90
11965;DHT22;6042;41.326;19.826;2022-08-25T04:44:31;22.40;99.90
11965;DHT22;6042;41.326;19.826;2022-08-25T04:47:00;22.60;99.90
11965;DHT22;6042;41.326;19.826;2022-08-25T04:49:29;22.50;99.90
11965;DHT22;6042;41.326;19.826;2022-08-25T04:51:58;22.50;99.90
11965;DHT22;6042;41.326;19.826;2022-08-25T04:54:26;22.50;99.90
11965;DHT22;6042;41.326;19.826;2022-08-25T04:57:03;22.60;99.90
11965;DHT22;6042;41.326;19.826;2022-08-25T04:59:33;22.60;99.90
11965;DHT22;6042;41.326;19.826;2022-08-25T05:02:02;22.60;99.90
11965;DHT22;6042;41.326;19.826;2022-08-25T05:04:32;22.60;99.90
11965;DHT22;6042;41.326;19.826;2022-08-25T05:07:02;22.70;99.90
11965;DHT22;6042;41.326;19.826;2022-08-25T05:09:31;22.60;99.90
11965;DHT22;6042;41.326;19.826;2022-08-25T05:12:00;22.70;99.90
11965;DHT22;6042;41.326;19.826;2022-08-25T05:14:30;22.70;99.90
11965;DHT22;6042;41.326;19.826;2022-08-25T05:17:00;22.80;99.90
11965;DHT22;6042;41.326;19.826;2022-08-25T05:19:28;22.80;99.90
11965;DHT22;6042;41.326;19.826;2022-08-25T05:21:57;22.90;99.90
11965;DHT22;6042;41.326;19.826;2022-08-25T05:24:25;23.10;99.90
11965;DHT22;6042;41.326;19.826;2022-08-25T05:26:56;23.10;99.90
11965;DHT22;6042;41.326;19.826;2022-08-25T05:29:24;23.20;99.90
11965;DHT22;6042;41.326;19.826;2022-08-25T05:31:53;23.20;99.90
11965;DHT22;6042;41.326;19.826;2022-08-25T05:34:23;23.30;99.90
11965;DHT22;6042;41.326;19.826;2022-08-25T05:36:51;23.40;99.90
11965;DHT22;6042;41.326;19.826;2022-08-25T05:39:20;23.60;99.90
11965;DHT22;6042;41.326;19.826;2022-08-25T05:41:52;23.70;99.90
11965;DHT22;6042;41.326;19.826;2022-08-25T05:44:21;23.80;99.90
11965;DHT22;6042;41.326;19.826;2022-08-25T05:46:49;23.80;99.90
11965;DHT22;6042;41.326;19.826;2022-08-25T05:49:18;24.00;99.90
11965;DHT22;6042;41.326;19.826;2022-08-25T05:51:48;24.10;99.90
11965;DHT22;6042;41.326;19.826;2022-08-25T05:54:16;24.10;99.90
11965;DHT22;6042;41.326;19.826;2022-08-25T05:56:45;24.10;99.90
11965;DHT22;6042;41.326;19.826;2022-08-25T05:59:14;24.10;99.90
11965;DHT22;6042;41.326;19.826;2022-08-25T06:01:42;24.20;99.90
11965;DHT22;6042;41.326;19.826;2022-08-25T06:04:28;24.30;99.90
11965;DHT22;6042;41.326;19.826;2022-08-25T06:06:58;24.20;99.90
11965;DHT22;6042;41.326;19.826;2022-08-25T06:09:27;24.10;99.90
11965;DHT22;6042;41.326;19.826;2022-08-25T06:11:55;24.00;99.90
11965;DHT22;6042;41.326;19.826;2022-08-25T06:14:24;24.00;99.90
11965;DHT22;6042;41.326;19.826;2022-08-25T06:16:53;23.90;99.90
11965;DHT22;6042;41.326;19.826;2022-08-25T06:19:22;24.00;99.90
11965;DHT22;6042;41.326;19.826;2022-08-25T06:21:53;24.00;99.90
11965;DHT22;6042;41.326;19.826;2022-08-25T06:24:24;24.00;99.90
11965;DHT22;6042;41.326;19.826;2022-08-25T06:26:54;24.00;99.90
11965;DHT22;6042;41.326;19.826;2022-08-25T06:29:23;24.00;99.90
11965;DHT22;6042;41.326;19.826;2022-08-25T06:31:51;23.90;99.90
11965;DHT22;6042;41.326;19.826;2022-08-25T06:34:20;23.90;99.90
11965;DHT22;6042;41.326;19.826;2022-08-25T06:36:51;23.80;99.90
11965;DHT22;6042;41.326;19.826;2022-08-25T06:39:20;23.80;99.90
11965;DHT22;6042;41.326;19.826;2022-08-25T06:41:54;23.90;99.90
11965;DHT22;6042;41.326;19.826;2022-08-25T06:44:25;24.10;99.90
11965;DHT22;6042;41.326;19.826;2022-08-25T06:46:54;24.20;99.90
11965;DHT22;6042;41.326;19.826;2022-08-25T06:49:23;24.20;99.90
11965;DHT22;6042;41.326;19.826;2022-08-25T06:52:02;24.30;99.90
11965;DHT22;6042;41.326;19.826;2022-08-25T06:54:30;24.30;99.90
11965;DHT22;6042;41.326;19.826;2022-08-25T06:57:01;24.30;99.90
11965;DHT22;6042;41.326;19.826;2022-08-25T06:59:30;24.40;99.90
11965;DHT22;6042;41.326;19.826;2022-08-25T07:01:58;24.40;99.90
11965;DHT22;6042;41.326;19.826;2022-08-25T07:04:29;24.40;99.90
11965;DHT22;6042;41.326;19.826;2022-08-25T07:06:57;24.60;99.90
11965;DHT22;6042;41.326;19.826;2022-08-25T07:09:27;24.70;99.90
11965;DHT22;6042;41.326;19.826;2022-08-25T07:11:55;24.80;99.90
11965;DHT22;6042;41.326;19.826;2022-08-25T07:14:26;24.80;99.90
11965;DHT22;6042;41.326;19.826;2022-08-25T07:16:54;24.90;99.90
11965;DHT22;6042;41.326;19.826;2022-08-25T07:19:25;25.00;99.90
11965;DHT22;6042;41.326;19.826;2022-08-25T07:21:53;25.00;99.90
11965;DHT22;6042;41.326;19.826;2022-08-25T07:24:22;25.10;99.90
11965;DHT22;6042;41.326;19.826;2022-08-25T07:26:51;25.20;99.90
11965;DHT22;6042;41.326;19.826;2022-08-25T07:29:22;25.30;99.90
11965;DHT22;6042;41.326;19.826;2022-08-25T07:32:00;25.40;99.90
11965;DHT22;6042;41.326;19.826;2022-08-25T07:34:29;25.50;99.90
11965;DHT22;6042;41.326;19.826;2022-08-25T07:37:19;25.50;99.90
11965;DHT22;6042;41.326;19.826;2022-08-25T07:40:11;25.70;99.90
11965;DHT22;6042;41.326;19.826;2022-08-25T07:42:41;25.80;99.90
11965;DHT22;6042;41.326;19.826;2022-08-25T07:45:11;26.00;99.90
11965;DHT22;6042;41.326;19.826;2022-08-25T07:47:43;26.10;99.90
11965;DHT22;6042;41.326;19.826;2022-08-25T07:50:12;26.40;99.90
11965;DHT22;6042;41.326;19.826;2022-08-25T07:52:40;26.50;99.90
11965;DHT22;6042;41.326;19.826;2022-08-25T07:55:09;26.50;99.90
11965;DHT22;6042;41.326;19.826;2022-08-25T07:57:43;26.50;99.90
11965;DHT22;6042;41.326;19.826;2022-08-25T08:00:20;26.60;99.90
11965;DHT22;6042;41.326;19.826;2022-08-25T08:02:52;26.70;99.90
11965;DHT22;6042;41.326;19.826;2022-08-25T08:05:20;26.80;99.90
11965;DHT22;6042;41.326;19.826;2022-08-25T08:07:50;26.80;99.90
11965;DHT22;6042;41.326;19.826;2022-08-25T08:10:19;27.00;99.90
11965;DHT22;6042;41.326;19.826;2022-08-25T08:13:10;27.00;99.90
11965;DHT22;6042;41.326;19.826;2022-08-25T08:15:45;27.10;99.90
11965;DHT22;6042;41.326;19.826;2022-08-25T08:18:16;27.10;99.90
11965;DHT22;6042;41.326;19.826;2022-08-25T08:20:45;27.20;99.90
11965;DHT22;6042;41.326;19.826;2022-08-25T08:23:15;27.30;99.90
11965;DHT22;6042;41.326;19.826;2022-08-25T08:25:43;27.40;99.90
11965;DHT22;6042;41.326;19.826;2022-08-25T08:28:12;27.40;99.90
11965;DHT22;6042;41.326;19.826;2022-08-25T08:30:40;27.40;99.90
11965;DHT22;6042;41.326;19.826;2022-08-25T08:33:23;27.30;99.90
11965;DHT22;6042;41.326;19.826;2022-08-25T08:35:58;27.30;99.90
11965;DHT22;6042;41.326;19.826;2022-08-25T08:38:32;27.10;99.90
11965;DHT22;6042;41.326;19.826;2022-08-25T08:41:13;26.90;99.90
11965;DHT22;6042;41.326;19.826;2022-08-25T08:44:24;26.70;99.90
11965;DHT22;6042;41.326;19.826;2022-08-25T08:47:02;26.60;99.90
11965;DHT22;6042;41.326;19.826;2022-08-25T08:49:43;26.40;99.90
11965;DHT22;6042;41.326;19.826;2022-08-25T08:52:18;26.40;99.90
11965;DHT22;6042;41.326;19.826;2022-08-25T08:54:57;26.30;99.90
11965;DHT22;6042;41.326;19.826;2022-08-25T08:57:34;26.50;99.90
11965;DHT22;6042;41.326;19.826;2022-08-25T09:00:07;26.70;99.90
11965;DHT22;6042;41.326;19.826;2022-08-25T09:02:41;26.70;99.90
11965;DHT22;6042;41.326;19.826;2022-08-25T09:05:21;26.80;99.90
11965;DHT22;6042;41.326;19.826;2022-08-25T09:07:54;26.80;99.90
11965;DHT22;6042;41.326;19.826;2022-08-25T09:10:25;26.90;99.90
11965;DHT22;6042;41.326;19.826;2022-08-25T09:13:01;26.90;99.90
11965;DHT22;6042;41.326;19.826;2022-08-25T09:15:44;27.10;99.90
11965;DHT22;6042;41.326;19.826;2022-08-25T09:18:41;27.10;99.90
11965;DHT22;6042;41.326;19.826;2022-08-25T09:21:27;27.20;99.90
11965;DHT22;6042;41.326;19.826;2022-08-25T09:24:12;27.10;99.90
11965;DHT22;6042;41.326;19.826;2022-08-25T09:26:51;27.20;99.90
11965;DHT22;6042;41.326;19.826;2022-08-25T09:29:33;27.40;99.90
11965;DHT22;6042;41.326;19.826;2022-08-25T09:32:05;27.40;99.90
11965;DHT22;6042;41.326;19.826;2022-08-25T09:34:36;27.40;99.90
11965;DHT22;6042;41.326;19.826;2022-08-25T09:37:06;27.60;99.90
11965;DHT22;6042;41.326;19.826;2022-08-25T09:39:35;27.70;99.90
11965;DHT22;6042;41.326;19.826;2022-08-25T09:42:05;27.70;99.90
11965;DHT22;6042;41.326;19.826;2022-08-25T09:44:39;27.90;99.90
11965;DHT22;6042;41.326;19.826;2022-08-25T09:47:18;27.90;99.90
11965;DHT22;6042;41.326;19.826;2022-08-25T09:49:49;27.90;99.90
11965;DHT22;6042;41.326;19.826;2022-08-25T09:52:34;27.90;99.90
11965;DHT22;6042;41.326;19.826;2022-08-25T09:55:28;27.80;99.90
11965;DHT22;6042;41.326;19.826;2022-08-25T09:57:58;27.90;99.90
11965;DHT22;6042;41.326;19.826;2022-08-25T10:00:35;28.10;99.90
11965;DHT22;6042;41.326;19.826;2022-08-25T10:03:10;28.00;99.90
11965;DHT22;6042;41.326;19.826;2022-08-25T10:05:58;27.90;99.90
11965;DHT22;6042;41.326;19.826;2022-08-25T10:08:34;28.00;99.90
11965;DHT22;6042;41.326;19.826;2022-08-25T10:11:09;28.00;99.90
11965;DHT22;6042;41.326;19.826;2022-08-25T10:13:42;28.00;99.90
11965;DHT22;6042;41.326;19.826;2022-08-25T10:16:20;27.90;99.90
11965;DHT22;6042;41.326;19.826;2022-08-25T10:19:00;27.80;99.90
11965;DHT22;6042;41.326;19.826;2022-08-25T10:21:31;27.90;99.90
11965;DHT22;6042;41.326;19.826;2022-08-25T10:24:01;27.90;99.90
11965;DHT22;6042;41.326;19.826;2022-08-25T10:26:44;27.90;99.90
11965;DHT22;6042;41.326;19.826;2022-08-25T10:29:27;28.10;99.90
11965;DHT22;6042;41.326;19.826;2022-08-25T10:32:02;28.30;99.90
11965;DHT22;6042;41.326;19.826;2022-08-25T10:34:45;28.60;99.90
11965;DHT22;6042;41.326;19.826;2022-08-25T10:37:27;28.90;99.90
11965;DHT22;6042;41.326;19.826;2022-08-25T10:40:11;29.00;99.20
11965;DHT22;6042;41.326;19.826;2022-08-25T10:42:53;29.00;99.10
11965;DHT22;6042;41.326;19.826;2022-08-25T10:45:26;29.00;99.10
11965;DHT22;6042;41.326;19.826;2022-08-25T10:48:29;29.10;98.90
11965;DHT22;6042;41.326;19.826;2022-08-25T10:51:10;29.40;98.50
11965;DHT22;6042;41.326;19.826;2022-08-25T10:53:55;29.70;98.80
11965;DHT22;6042;41.326;19.826;2022-08-25T10:56:33;29.70;98.40
11965;DHT22;6042;41.326;19.826;2022-08-25T10:59:15;29.90;98.10
11965;DHT22;6042;41.326;19.826;2022-08-25T11:04:54;30.00;98.00
11965;DHT22;6042;41.326;19.826;2022-08-25T11:07:30;30.10;97.00
11965;DHT22;6042;41.326;19.826;2022-08-25T11:10:05;30.20;97.00
11965;DHT22;6042;41.326;19.826;2022-08-25T11:12:42;30.30;97.20
11965;DHT22;6042;41.326;19.826;2022-08-25T11:15:18;30.30;96.90
11965;DHT22;6042;41.326;19.826;2022-08-25T11:17:52;30.20;97.30
11965;DHT22;6042;41.326;19.826;2022-08-25T11:20:26;30.30;97.60
11965;DHT22;6042;41.326;19.826;2022-08-25T11:23:09;30.50;97.50
11965;DHT22;6042;41.326;19.826;2022-08-25T11:25:41;30.70;96.70
11965;DHT22;6042;41.326;19.826;2022-08-25T11:28:15;30.80;96.80
11965;DHT22;6042;41.326;19.826;2022-08-25T11:30:49;30.90;96.40
11965;DHT22;6042;41.326;19.826;2022-08-25T11:33:19;30.90;95.80
11965;DHT22;6042;41.326;19.826;2022-08-25T11:35:50;30.90;95.80
11965;DHT22;6042;41.326;19.826;2022-08-25T11:38:32;31.00;95.90
11965;DHT22;6042;41.326;19.826;2022-08-25T11:41:13;31.00;96.00
11965;DHT22;6042;41.326;19.826;2022-08-25T11:44:03;31.20;96.20
11965;DHT22;6042;41.326;19.826;2022-08-25T11:46:44;31.50;96.20
11965;DHT22;6042;41.326;19.826;2022-08-25T11:49:42;31.80;94.80
11965;DHT22;6042;41.326;19.826;2022-08-25T11:52:40;32.00;94.40
11965;DHT22;6042;41.326;19.826;2022-08-25T11:55:11;32.00;94.40
11965;DHT22;6042;41.326;19.826;2022-08-25T11:57:41;32.20;93.40
11965;DHT22;6042;41.326;19.826;2022-08-25T12:00:38;32.00;92.50
11965;DHT22;6042;41.326;19.826;2022-08-25T12:03:48;32.00;92.60
11965;DHT22;6042;41.326;19.826;2022-08-25T12:06:25;32.10;92.00
11965;DHT22;6042;41.326;19.826;2022-08-25T12:09:17;32.20;91.20
11965;DHT22;6042;41.326;19.826;2022-08-25T12:11:54;32.20;90.40
11965;DHT22;6042;41.326;19.826;2022-08-25T12:14:50;32.20;91.60
11965;DHT22;6042;41.326;19.826;2022-08-25T12:17:25;32.30;91.40
11965;DHT22;6042;41.326;19.826;2022-08-25T12:20:07;32.30;91.00
11965;DHT22;6042;41.326;19.826;2022-08-25T12:23:02;32.30;91.40
11965;DHT22;6042;41.326;19.826;2022-08-25T12:25:43;32.30;90.90
11965;DHT22;6042;41.326;19.826;2022-08-25T12:28:41;32.10;89.80
11965;DHT22;6042;41.326;19.826;2022-08-25T12:31:22;32.10;90.50
11965;DHT22;6042;41.326;19.826;2022-08-25T12:34:06;32.20;89.90
11965;DHT22;6042;41.326;19.826;2022-08-25T12:36:38;32.20;90.00
11965;DHT22;6042;41.326;19.826;2022-08-25T12:39:28;32.20;89.50
11965;DHT22;6042;41.326;19.826;2022-08-25T12:42:01;32.30;90.40
11965;DHT22;6042;41.326;19.826;2022-08-25T12:44:37;32.30;90.20
11965;DHT22;6042;41.326;19.826;2022-08-25T12:47:25;32.30;89.70
11965;DHT22;6042;41.326;19.826;2022-08-25T12:50:29;32.50;88.00
11965;DHT22;6042;41.326;19.826;2022-08-25T12:53:09;32.50;88.00
11965;DHT22;6042;41.326;19.826;2022-08-25T12:55:42;32.50;88.50
11965;DHT22;6042;41.326;19.826;2022-08-25T12:58:12;32.60;87.90
11965;DHT22;6042;41.326;19.826;2022-08-25T13:00:55;32.40;88.40
11965;DHT22;6042;41.326;19.826;2022-08-25T13:03:54;32.40;88.70
11965;DHT22;6042;41.326;19.826;2022-08-25T13:06:47;32.30;89.50
11965;DHT22;6042;41.326;19.826;2022-08-25T13:12:30;32.30;89.50
11965;DHT22;6042;41.326;19.826;2022-08-25T13:15:01;32.30;89.20
11965;DHT22;6042;41.326;19.826;2022-08-25T13:17:32;32.40;89.10
11965;DHT22;6042;41.326;19.826;2022-08-25T13:20:16;32.40;88.20
11965;DHT22;6042;41.326;19.826;2022-08-25T13:22:50;32.40;89.10
11965;DHT22;6042;41.326;19.826;2022-08-25T13:25:26;32.50;89.40
11965;DHT22;6042;41.326;19.826;2022-08-25T13:28:00;32.50;88.70
11965;DHT22;6042;41.326;19.826;2022-08-25T13:30:32;32.50;88.10
11965;DHT22;6042;41.326;19.826;2022-08-25T13:33:15;32.70;87.10
11965;DHT22;6042;41.326;19.826;2022-08-25T13:35:47;32.70;87.20
11965;DHT22;6042;41.326;19.826;2022-08-25T13:38:19;32.90;87.20
11965;DHT22;6042;41.326;19.826;2022-08-25T13:40:47;33.30;86.50
11965;DHT22;6042;41.326;19.826;2022-08-25T13:43:15;33.60;83.90
11965;DHT22;6042;41.326;19.826;2022-08-25T13:45:53;34.00;82.70
11965;DHT22;6042;41.326;19.826;2022-08-25T13:48:32;34.10;81.70
11965;DHT22;6042;41.326;19.826;2022-08-25T13:51:17;34.00;81.70
11965;DHT22;6042;41.326;19.826;2022-08-25T13:53:52;34.10;82.90
11965;DHT22;6042;41.326;19.826;2022-08-25T13:56:29;34.40;80.80
11965;DHT22;6042;41.326;19.826;2022-08-25T13:59:19;34.40;78.70
11965;DHT22;6042;41.326;19.826;2022-08-25T14:01:50;34.80;79.00
11965;DHT22;6042;41.326;19.826;2022-08-25T14:04:24;35.20;78.60
11965;DHT22;6042;41.326;19.826;2022-08-25T14:07:22;35.70;76.90
11965;DHT22;6042;41.326;19.826;2022-08-25T14:09:56;35.40;76.60
11965;DHT22;6042;41.326;19.826;2022-08-25T14:12:33;35.40;76.50
11965;DHT22;6042;41.326;19.826;2022-08-25T14:15:10;35.30;76.50
11965;DHT22;6042;41.326;19.826;2022-08-25T14:17:41;34.80;77.90
11965;DHT22;6042;41.326;19.826;2022-08-25T14:20:21;34.20;79.70
11965;DHT22;6042;41.326;19.826;2022-08-25T14:22:56;34.10;79.40
11965;DHT22;6042;41.326;19.826;2022-08-25T14:25:27;34.30;79.60
11965;DHT22;6042;41.326;19.826;2022-08-25T14:28:02;34.10;79.30
11965;DHT22;6042;41.326;19.826;2022-08-25T14:30:36;33.90;78.90
11965;DHT22;6042;41.326;19.826;2022-08-25T14:33:09;34.00;79.50
11965;DHT22;6042;41.326;19.826;2022-08-25T14:35:39;33.90;79.20
11965;DHT22;6042;41.326;19.826;2022-08-25T14:38:09;34.00;79.10
11965;DHT22;6042;41.326;19.826;2022-08-25T14:40:40;34.10;80.20
11965;DHT22;6042;41.326;19.826;2022-08-25T14:43:08;33.90;83.70
11965;DHT22;6042;41.326;19.826;2022-08-25T14:45:39;33.20;86.20
11965;DHT22;6042;41.326;19.826;2022-08-25T14:48:13;32.60;88.90
11965;DHT22;6042;41.326;19.826;2022-08-25T14:50:45;32.40;90.30
11965;DHT22;6042;41.326;19.826;2022-08-25T14:53:16;32.50;90.70
11965;DHT22;6042;41.326;19.826;2022-08-25T14:55:46;32.70;91.10
11965;DHT22;6042;41.326;19.826;2022-08-25T14:58:17;32.50;91.30
11965;DHT22;6042;41.326;19.826;2022-08-25T15:00:53;32.50;91.70
11965;DHT22;6042;41.326;19.826;2022-08-25T15:03:28;32.30;92.20
11965;DHT22;6042;41.326;19.826;2022-08-25T15:05:58;32.30;92.40
11965;DHT22;6042;41.326;19.826;2022-08-25T15:08:27;32.30;92.50
11965;DHT22;6042;41.326;19.826;2022-08-25T15:11:14;32.30;92.60
11965;DHT22;6042;41.326;19.826;2022-08-25T15:13:43;32.20;92.30
11965;DHT22;6042;41.326;19.826;2022-08-25T15:16:24;32.10;92.50
11965;DHT22;6042;41.326;19.826;2022-08-25T15:19:02;32.10;92.50
11965;DHT22;6042;41.326;19.826;2022-08-25T15:21:33;32.20;92.40
11965;DHT22;6042;41.326;19.826;2022-08-25T15:24:03;32.50;92.20
11965;DHT22;6042;41.326;19.826;2022-08-25T15:26:34;32.80;91.90
11965;DHT22;6042;41.326;19.826;2022-08-25T15:29:06;33.00;91.50
11965;DHT22;6042;41.326;19.826;2022-08-25T15:31:35;33.20;90.90
11965;DHT22;6042;41.326;19.826;2022-08-25T15:34:05;33.20;90.80
11965;DHT22;6042;41.326;19.826;2022-08-25T15:36:38;33.10;90.80
11965;DHT22;6042;41.326;19.826;2022-08-25T15:39:07;33.10;91.00
11965;DHT22;6042;41.326;19.826;2022-08-25T15:41:37;33.00;91.10
11965;DHT22;6042;41.326;19.826;2022-08-25T15:44:08;32.80;91.30
11965;DHT22;6042;41.326;19.826;2022-08-25T15:46:39;32.80;91.30
11965;DHT22;6042;41.326;19.826;2022-08-25T15:49:16;32.50;91.90
11965;DHT22;6042;41.326;19.826;2022-08-25T15:51:50;32.30;92.20
11965;DHT22;6042;41.326;19.826;2022-08-25T15:54:21;32.30;92.40
11965;DHT22;6042;41.326;19.826;2022-08-25T15:56:54;32.30;92.60
11965;DHT22;6042;41.326;19.826;2022-08-25T15:59:24;31.90;93.20
11965;DHT22;6042;41.326;19.826;2022-08-25T16:01:53;31.80;93.70
11965;DHT22;6042;41.326;19.826;2022-08-25T16:04:23;31.80;94.00
11965;DHT22;6042;41.326;19.826;2022-08-25T16:06:52;32.00;93.90
11965;DHT22;6042;41.326;19.826;2022-08-25T16:09:21;32.10;93.90
11965;DHT22;6042;41.326;19.826;2022-08-25T16:11:50;32.00;94.00
11965;DHT22;6042;41.326;19.826;2022-08-25T16:14:25;32.10;94.00
11965;DHT22;6042;41.326;19.826;2022-08-25T16:16:54;31.60;94.30
11965;DHT22;6042;41.326;19.826;2022-08-25T16:19:24;31.20;94.90
11965;DHT22;6042;41.326;19.826;2022-08-25T16:21:53;30.90;95.30
11965;DHT22;6042;41.326;19.826;2022-08-25T16:24:23;30.80;95.50
11965;DHT22;6042;41.326;19.826;2022-08-25T16:26:52;30.70;95.60